createdAt,value
2018-09-08T00:01:18.679Z,10.13
2018-09-08T00:03:45.898Z,9.20
2018-09-08T00:06:13.157Z,8.70
2018-09-08T00:08:40.310Z,9.47
2018-09-08T00:11:07.456Z,9.20
2018-09-08T00:13:34.624Z,8.10
2018-09-08T00:16:07.536Z,9.03
2018-09-08T00:18:40.280Z,8.47
2018-09-08T00:21:13.104Z,9.00
2018-09-08T00:23:45.796Z,8.93
2018-09-08T00:26:18.504Z,8.80
2018-09-08T00:28:49.253Z,8.40
2018-09-08T00:31:17.932Z,8.90
2018-09-08T00:33:45.525Z,8.73
2018-09-08T00:36:12.804Z,8.70
2018-09-08T00:38:40.405Z,9.40
2018-09-08T00:41:07.593Z,8.97
2018-09-08T00:43:34.823Z,8.10
2018-09-08T00:46:01.998Z,8.30
2018-09-08T00:48:29.299Z,8.50
2018-09-08T00:50:56.443Z,8.07
2018-09-08T00:53:23.542Z,7.40
2018-09-08T00:55:51.504Z,7.00
2018-09-08T00:58:18.725Z,7.33
2018-09-08T01:00:45.850Z,8.63
2018-09-08T01:03:13.155Z,7.77
2018-09-08T01:05:40.289Z,6.97
2018-09-08T01:08:07.527Z,6.93
2018-09-08T01:10:34.753Z,7.60
2018-09-08T01:13:01.915Z,8.20
2018-09-08T01:15:29.091Z,8.03
2018-09-08T01:17:56.196Z,7.40
2018-09-08T01:20:23.269Z,7.87
2018-09-08T01:22:50.475Z,7.87
2018-09-08T01:25:17.637Z,7.70
2018-09-08T01:27:44.796Z,10.30
2018-09-08T01:30:12.051Z,8.00
2018-09-08T01:32:39.205Z,6.87
2018-09-08T01:35:06.382Z,8.07
2018-09-08T01:37:33.553Z,6.57
2018-09-08T01:40:00.692Z,8.50
2018-09-08T01:42:27.892Z,6.97
2018-09-08T01:44:55.055Z,8.13
2018-09-08T01:47:22.220Z,9.40
2018-09-08T01:49:49.610Z,9.57
2018-09-08T01:52:16.763Z,8.77
2018-09-08T01:54:43.885Z,9.73
2018-09-08T01:57:11.124Z,9.90
2018-09-08T01:59:38.332Z,8.63
2018-09-08T02:02:05.517Z,9.10
2018-09-08T02:04:32.624Z,8.77
2018-09-08T02:06:59.766Z,8.20
2018-09-08T02:09:27.100Z,8.97
2018-09-08T02:11:54.336Z,8.10
2018-09-08T02:14:21.467Z,8.67
2018-09-08T02:16:49.321Z,8.53
2018-09-08T02:19:16.510Z,7.97
2018-09-08T02:21:43.696Z,8.17
2018-09-08T02:24:11.037Z,9.00
2018-09-08T02:26:38.095Z,8.20
2018-09-08T02:29:05.285Z,8.20
2018-09-08T02:31:32.481Z,7.67
2018-09-08T02:33:59.608Z,8.40
2018-09-08T02:36:26.765Z,7.30
2018-09-08T02:38:53.927Z,8.10
2018-09-08T02:41:21.077Z,8.07
2018-09-08T02:43:48.389Z,8.30
2018-09-08T02:46:15.565Z,7.77
2018-09-08T02:48:42.702Z,8.27
2018-09-08T02:51:08.864Z,8.77
2018-09-08T02:53:35.020Z,8.40
2018-09-08T02:56:01.232Z,8.43
2018-09-08T02:58:27.384Z,8.37
2018-09-08T03:00:53.495Z,8.67
2018-09-08T03:03:19.628Z,8.60
2018-09-08T03:05:45.880Z,7.13
2018-09-08T03:08:11.997Z,7.47
2018-09-08T03:10:38.144Z,7.37
2018-09-08T03:13:04.233Z,7.70
2018-09-08T03:15:30.369Z,8.70
2018-09-08T03:17:56.484Z,8.43
2018-09-08T03:20:22.608Z,9.20
2018-09-08T03:22:48.709Z,9.10
2018-09-08T03:25:14.916Z,8.90
2018-09-08T03:27:41.001Z,7.97
2018-09-08T03:30:07.153Z,8.20
2018-09-08T03:32:33.280Z,9.00
2018-09-08T03:34:59.508Z,8.13
2018-09-08T03:37:25.660Z,8.30
2018-09-08T03:39:51.772Z,8.50
2018-09-08T03:42:17.991Z,8.03
2018-09-08T03:44:44.086Z,8.90
2018-09-08T03:47:10.256Z,7.60
2018-09-08T03:49:36.366Z,8.00
2018-09-08T03:52:02.525Z,8.93
2018-09-08T03:54:28.651Z,8.80
2018-09-08T03:56:54.793Z,9.30
2018-09-08T03:59:20.927Z,8.40
2018-09-08T04:01:47.902Z,8.00
2018-09-08T04:04:15.078Z,7.97
2018-09-08T04:06:42.147Z,9.20
2018-09-08T04:09:10.329Z,9.30
2018-09-08T04:11:37.839Z,8.70
2018-09-08T04:14:05.036Z,9.10
2018-09-08T04:16:32.276Z,8.67
2018-09-08T04:18:59.460Z,10.07
2018-09-08T04:21:26.600Z,8.20
2018-09-08T04:23:53.932Z,9.07
2018-09-08T04:26:21.036Z,10.33
2018-09-08T04:28:54.863Z,10.60
2018-09-08T04:31:22.038Z,9.00
2018-09-08T04:33:49.204Z,9.70
2018-09-08T04:36:16.391Z,8.93
2018-09-08T04:38:43.649Z,8.50
2018-09-08T04:41:10.784Z,9.20
2018-09-08T04:43:37.932Z,8.73
2018-09-08T04:46:05.367Z,8.93
2018-09-08T04:48:32.464Z,10.47
2018-09-08T04:50:59.876Z,9.43
2018-09-08T04:53:27.015Z,9.10
2018-09-08T04:55:54.125Z,9.67
2018-09-08T04:58:21.305Z,7.80
2018-09-08T05:00:48.456Z,7.63
2018-09-08T05:03:15.717Z,8.93
2018-09-08T05:05:43.041Z,8.07
2018-09-08T05:08:10.181Z,7.97
2018-09-08T05:10:37.308Z,8.00
2018-09-08T05:13:04.477Z,9.00
2018-09-08T05:15:31.704Z,8.57
2018-09-08T05:17:59.005Z,8.80
2018-09-08T05:20:26.149Z,7.60
2018-09-08T05:22:53.336Z,10.03
2018-09-08T05:25:20.573Z,7.60
2018-09-08T05:27:47.690Z,8.40
2018-09-08T05:30:14.833Z,9.07
2018-09-08T05:32:42.154Z,9.97
2018-09-08T05:35:09.366Z,8.90
2018-09-08T05:37:36.436Z,8.20
2018-09-08T05:40:04.041Z,8.77
2018-09-08T05:42:31.188Z,9.10
2018-09-08T05:44:58.504Z,8.33
2018-09-08T05:47:25.624Z,9.97
2018-09-08T05:49:52.753Z,9.13
2018-09-08T05:52:19.972Z,9.40
2018-09-08T05:54:47.109Z,8.90
2018-09-08T05:57:14.317Z,8.53
2018-09-08T05:59:41.649Z,8.57
2018-09-08T06:02:08.808Z,9.43
2018-09-08T06:04:35.888Z,9.30
2018-09-08T06:07:04.149Z,9.20
2018-09-08T06:09:32.377Z,8.00
2018-09-08T06:11:59.681Z,8.53
2018-09-08T06:14:27.031Z,9.87
2018-09-08T06:16:54.192Z,8.83
2018-09-08T06:19:21.277Z,8.90
2018-09-08T06:21:48.565Z,9.33
2018-09-08T06:24:15.766Z,9.00
2018-09-08T06:26:43.116Z,9.47
2018-09-08T06:29:10.336Z,10.30
2018-09-08T06:31:37.574Z,9.53
2018-09-08T06:34:04.717Z,9.03
2018-09-08T06:36:31.837Z,9.47
2018-09-08T06:38:58.925Z,10.77
2018-09-08T06:41:26.077Z,9.13
2018-09-08T06:43:53.208Z,9.30
2018-09-08T06:46:20.377Z,10.10
2018-09-08T06:48:47.587Z,9.47
2018-09-08T06:51:14.752Z,10.00
2018-09-08T06:53:41.964Z,8.90
2018-09-08T06:56:09.214Z,9.83
2018-09-08T06:58:36.360Z,10.00
2018-09-08T07:01:03.589Z,8.70
2018-09-08T07:03:30.970Z,8.93
2018-09-08T07:05:58.075Z,8.47
2018-09-08T07:08:25.384Z,9.27
2018-09-08T07:10:52.488Z,8.40
2018-09-08T07:13:19.616Z,9.40
2018-09-08T07:15:46.765Z,8.43
2018-09-08T07:18:13.896Z,9.57
2018-09-08T07:20:41.093Z,8.60
2018-09-08T07:23:08.436Z,8.23
2018-09-08T07:25:35.589Z,9.37
2018-09-08T07:28:02.913Z,7.53
2018-09-08T07:30:30.048Z,9.40
2018-09-08T07:32:57.189Z,7.80
2018-09-08T07:35:24.449Z,10.23
2018-09-08T07:37:51.580Z,8.70
2018-09-08T07:40:18.727Z,8.53
2018-09-08T07:42:45.816Z,9.27
2018-09-08T07:45:12.924Z,7.47
2018-09-08T07:47:40.316Z,8.00
2018-09-08T07:50:07.545Z,7.50
2018-09-08T07:52:34.736Z,7.87
2018-09-08T07:55:02.110Z,8.67
2018-09-08T07:57:29.336Z,8.37
2018-09-08T07:59:56.523Z,7.13
2018-09-08T08:02:23.779Z,8.40
2018-09-08T08:04:50.934Z,7.90
2018-09-08T08:07:18.049Z,7.63
2018-09-08T08:09:45.608Z,8.00
2018-09-08T08:12:13.025Z,7.93
2018-09-08T08:14:40.236Z,9.47
2018-09-08T08:17:07.412Z,8.10
2018-09-08T08:19:35.240Z,8.70
2018-09-08T08:22:02.635Z,7.60
2018-09-08T08:24:29.816Z,7.57
2018-09-08T08:26:56.952Z,6.30
2018-09-08T08:29:24.253Z,6.10
2018-09-08T08:31:51.682Z,5.87
2018-09-08T08:34:18.787Z,4.90
2018-09-08T08:36:45.953Z,4.93
2018-09-08T08:39:13.073Z,4.60
2018-09-08T08:41:40.236Z,4.60
2018-09-08T08:44:07.547Z,4.57
2018-09-08T08:46:34.690Z,4.50
2018-09-08T08:49:01.828Z,3.50
2018-09-08T08:51:40.406Z,3.40
2018-09-08T08:54:16.568Z,3.20
2018-09-08T08:56:43.729Z,3.57
2018-09-08T08:59:10.881Z,3.60
2018-09-08T09:01:38.469Z,3.90
2018-09-08T09:04:05.736Z,3.17
2018-09-08T09:06:33.178Z,2.80
2018-09-08T09:09:00.352Z,3.10
2018-09-08T09:11:27.584Z,2.80
2018-09-08T09:13:54.716Z,3.70
2018-09-08T09:16:21.980Z,2.73
2018-09-08T09:19:01.018Z,3.00
2018-09-08T09:21:39.296Z,3.37
2018-09-08T09:24:27.183Z,3.17
2018-09-08T09:26:54.576Z,3.30
2018-09-08T09:29:21.821Z,3.27
2018-09-08T09:31:50.124Z,2.60
2018-09-08T09:34:17.322Z,4.23
2018-09-08T09:36:44.667Z,2.93
2018-09-08T09:39:12.639Z,3.13
2018-09-08T09:41:41.031Z,2.50
2018-09-08T09:44:08.299Z,3.17
2018-09-08T09:46:35.565Z,2.27
2018-09-08T09:49:02.866Z,1.90
2018-09-08T09:51:30.009Z,2.00
2018-09-08T09:53:57.179Z,2.10
2018-09-08T09:56:25.029Z,2.03
2018-09-08T09:58:52.209Z,2.17
2018-09-08T10:01:25.130Z,2.00
2018-09-08T10:03:52.350Z,1.57
2018-09-08T10:06:19.655Z,2.63
2018-09-08T10:08:46.865Z,1.87
2018-09-08T10:11:14.053Z,2.17
2018-09-08T10:13:41.323Z,2.30
2018-09-08T10:16:08.481Z,1.90
2018-09-08T10:18:35.737Z,2.00
2018-09-08T10:21:03.081Z,2.40
2018-09-08T10:23:30.311Z,2.30
2018-09-08T10:25:57.596Z,2.13
2018-09-08T10:28:24.809Z,2.77
2018-09-08T10:30:51.983Z,2.03
2018-09-08T10:33:19.263Z,2.30
2018-09-08T10:35:46.551Z,2.73
2018-09-08T10:38:13.685Z,2.17
2018-09-08T10:40:40.940Z,2.47
2018-09-08T10:43:08.138Z,1.97
2018-09-08T10:45:35.281Z,2.63
2018-09-08T10:48:02.459Z,2.53
2018-09-08T10:50:29.725Z,2.20
2018-09-08T10:52:56.845Z,2.37
2018-09-08T10:55:24.005Z,2.87
2018-09-08T10:57:51.249Z,2.47
2018-09-08T11:00:18.631Z,2.87
2018-09-08T11:02:46.169Z,2.10
2018-09-08T11:05:13.132Z,2.17
2018-09-08T11:07:40.338Z,2.30
2018-09-08T11:10:07.533Z,2.40
2018-09-08T11:12:34.769Z,2.50
2018-09-08T11:15:02.034Z,2.10
2018-09-08T11:17:29.194Z,2.90
2018-09-08T11:19:56.364Z,2.57
2018-09-08T11:22:23.683Z,2.53
2018-09-08T11:24:50.901Z,3.20
2018-09-08T11:27:18.234Z,2.67
2018-09-08T11:29:45.486Z,2.37
2018-09-08T11:32:12.653Z,2.03
2018-09-08T11:34:39.927Z,2.30
2018-09-08T11:37:07.186Z,2.40
2018-09-08T11:39:34.386Z,2.60
2018-09-08T11:42:08.524Z,2.50
2018-09-08T11:44:35.637Z,2.70
2018-09-08T11:47:02.994Z,1.97
2018-09-08T11:49:30.306Z,2.40
2018-09-08T11:51:57.466Z,2.13
2018-09-08T11:54:24.805Z,2.20
2018-09-08T11:56:51.940Z,2.20
2018-09-08T11:59:19.128Z,2.10
2018-09-08T12:01:46.402Z,2.20
2018-09-08T12:04:13.687Z,1.87
2018-09-08T12:06:40.906Z,2.37
2018-09-08T12:09:09.380Z,2.00
2018-09-08T12:11:36.781Z,2.13
2018-09-08T12:14:04.107Z,2.60
2018-09-08T12:16:31.278Z,1.63
2018-09-08T12:18:58.543Z,2.03
2018-09-08T12:21:25.670Z,2.33
2018-09-08T12:23:53.132Z,1.73
2018-09-08T12:26:20.313Z,2.00
2018-09-08T12:28:47.517Z,1.70
2018-09-08T12:31:14.823Z,2.10
2018-09-08T12:33:41.990Z,2.10
2018-09-08T12:36:09.181Z,1.77
2018-09-08T12:38:36.376Z,2.20
2018-09-08T12:41:03.545Z,1.80
2018-09-08T12:43:30.733Z,2.17
2018-09-08T12:45:58.160Z,1.70
2018-09-08T12:48:25.335Z,2.27
2018-09-08T12:50:52.616Z,2.07
2018-09-08T12:53:19.847Z,2.00
2018-09-08T12:55:53.923Z,2.10
2018-09-08T12:58:21.159Z,2.10
2018-09-08T13:00:48.342Z,2.20
2018-09-08T13:03:15.653Z,1.90
2018-09-08T13:05:43.004Z,2.17
2018-09-08T13:08:10.166Z,2.00
2018-09-08T13:10:37.344Z,1.87
2018-09-08T13:13:04.555Z,2.17
2018-09-08T13:15:31.766Z,2.17
2018-09-08T13:17:59.133Z,2.23
2018-09-08T13:20:26.281Z,1.70
2018-09-08T13:22:53.464Z,1.70
2018-09-08T13:25:20.827Z,2.43
2018-09-08T13:27:48.006Z,1.80
2018-09-08T13:30:15.323Z,1.90
2018-09-08T13:32:42.543Z,1.83
2018-09-08T13:35:09.693Z,1.80
2018-09-08T13:37:36.918Z,2.30
2018-09-08T13:40:04.554Z,1.70
2018-09-08T13:42:31.724Z,1.70
2018-09-08T13:44:59.011Z,1.93
2018-09-08T13:47:26.466Z,1.87
2018-09-08T13:49:53.532Z,1.77
2018-09-08T13:52:20.767Z,2.00
2018-09-08T13:54:47.908Z,1.60
2018-09-08T13:57:15.201Z,1.90
2018-09-08T13:59:42.573Z,2.27
2018-09-08T14:02:09.694Z,2.27
2018-09-08T14:04:36.875Z,1.90
2018-09-08T14:07:04.053Z,2.20
2018-09-08T14:09:31.238Z,1.97
2018-09-08T14:11:58.538Z,1.80
2018-09-08T14:14:25.783Z,1.73
2018-09-08T14:16:52.945Z,2.20
2018-09-08T14:19:20.193Z,2.03
2018-09-08T14:21:47.374Z,2.20
2018-09-08T14:24:14.497Z,1.53
2018-09-08T14:26:41.772Z,1.77
2018-09-08T14:29:08.989Z,1.83
2018-09-08T14:31:36.171Z,1.93
2018-09-08T14:34:03.354Z,1.77
2018-09-08T14:36:30.585Z,2.00
2018-09-08T14:38:57.863Z,2.03
2018-09-08T14:41:25.057Z,2.23
2018-09-08T14:43:52.510Z,2.20
2018-09-08T14:46:19.899Z,2.20
2018-09-08T14:48:47.065Z,2.30
2018-09-08T14:51:14.290Z,1.90
2018-09-08T14:53:41.584Z,2.03
2018-09-08T14:56:08.829Z,1.97
2018-09-08T14:58:36.044Z,2.20
2018-09-08T15:01:03.377Z,2.10
2018-09-08T15:03:30.555Z,2.00
2018-09-08T15:05:57.941Z,2.23
2018-09-08T15:08:25.280Z,2.00
2018-09-08T15:10:52.460Z,2.20
2018-09-08T15:13:19.961Z,2.10
2018-09-08T15:15:47.180Z,2.50
2018-09-08T15:18:14.384Z,2.37
2018-09-08T15:20:41.689Z,2.23
2018-09-08T15:23:08.909Z,2.43
2018-09-08T15:25:36.129Z,2.03
2018-09-08T15:28:03.532Z,2.00
2018-09-08T15:30:30.703Z,2.00
2018-09-08T15:32:57.954Z,1.80
2018-09-08T15:35:25.224Z,2.10
2018-09-08T15:37:52.357Z,2.10
2018-09-08T15:40:19.548Z,2.50
2018-09-08T15:42:46.865Z,2.00
2018-09-08T15:45:13.998Z,2.30
2018-09-08T15:47:41.320Z,1.80
2018-09-08T15:50:08.578Z,1.87
2018-09-08T15:52:35.754Z,2.00
2018-09-08T15:55:03.529Z,2.17
2018-09-08T15:57:30.708Z,2.20
2018-09-08T15:59:57.867Z,2.37
2018-09-08T16:02:25.165Z,3.13
2018-09-08T16:04:52.381Z,2.10
2018-09-08T16:07:19.502Z,1.90
2018-09-08T16:09:46.805Z,2.87
2018-09-08T16:12:13.977Z,1.83
2018-09-08T16:14:41.133Z,2.10
2018-09-08T16:17:08.574Z,2.20
2018-09-08T16:19:35.706Z,1.83
2018-09-08T16:22:02.834Z,2.27
2018-09-08T16:24:30.008Z,2.40
2018-09-08T16:26:57.157Z,2.10
2018-09-08T16:29:24.516Z,1.83
2018-09-08T16:31:51.801Z,1.87
2018-09-08T16:34:18.937Z,2.53
2018-09-08T16:36:46.184Z,2.50
2018-09-08T16:39:13.380Z,2.40
2018-09-08T16:41:40.498Z,2.73
2018-09-08T16:44:09.152Z,2.20
2018-09-08T16:46:36.366Z,2.87
2018-09-08T16:49:03.819Z,2.80
2018-09-08T16:51:30.965Z,3.23
2018-09-08T16:53:58.135Z,26.90
2018-09-08T16:56:25.391Z,13.47
2018-09-08T16:58:52.770Z,7.80
2018-09-08T17:01:20.100Z,2.63
2018-09-08T17:03:47.476Z,3.50
2018-09-08T17:06:15.351Z,2.70
2018-09-08T17:08:42.502Z,3.53
2018-09-08T17:11:09.693Z,3.17
2018-09-08T17:13:36.945Z,3.03
2018-09-08T17:16:04.096Z,3.20
2018-09-08T17:18:31.265Z,2.80
2018-09-08T17:20:58.485Z,3.50
2018-09-08T17:23:25.653Z,3.23
2018-09-08T17:25:52.760Z,2.60
2018-09-08T17:28:20.217Z,3.30
2018-09-08T17:30:47.301Z,3.37
2018-09-08T17:33:14.461Z,3.00
2018-09-08T17:35:41.616Z,2.83
2018-09-08T17:38:08.794Z,2.97
2018-09-08T17:40:36.148Z,2.67
2018-09-08T17:43:03.282Z,2.47
2018-09-08T17:45:30.506Z,3.00
2018-09-08T17:47:57.656Z,3.90
2018-09-08T17:50:24.801Z,3.10
2018-09-08T17:52:52.386Z,3.10
2018-09-08T17:55:20.417Z,3.17
2018-09-08T17:57:48.145Z,2.30
2018-09-08T18:00:15.369Z,3.10
2018-09-08T18:02:42.628Z,2.73
2018-09-08T18:05:10.308Z,2.97
2018-09-08T18:07:37.623Z,3.63
2018-09-08T18:10:05.793Z,3.50
2018-09-08T18:12:33.193Z,3.00
2018-09-08T18:15:00.380Z,3.17
2018-09-08T18:17:27.573Z,2.77
2018-09-08T18:19:54.859Z,2.93
2018-09-08T18:22:21.986Z,3.10
2018-09-08T18:24:49.265Z,2.80
2018-09-08T18:27:16.436Z,3.17
2018-09-08T18:29:43.540Z,3.13
2018-09-08T18:32:11.472Z,4.00
2018-09-08T18:34:38.601Z,3.67
2018-09-08T18:37:05.835Z,5.10
2018-09-08T18:39:33.165Z,3.50
2018-09-08T18:42:00.400Z,3.77
2018-09-08T18:44:27.685Z,3.97
2018-09-08T18:46:55.200Z,4.20
2018-09-08T18:49:22.374Z,4.00
2018-09-08T18:51:49.919Z,3.70
2018-09-08T18:54:17.340Z,3.90
2018-09-08T18:56:44.487Z,3.70
2018-09-08T18:59:11.697Z,4.40
2018-09-08T19:01:38.915Z,4.70
2018-09-08T19:04:06.086Z,4.87
2018-09-08T19:06:33.607Z,4.00
2018-09-08T19:09:00.908Z,4.10
2018-09-08T19:11:28.120Z,4.90
2018-09-08T19:13:55.472Z,4.67
2018-09-08T19:16:22.672Z,4.13
2018-09-08T19:18:50.243Z,4.27
2018-09-08T19:21:17.588Z,4.90
2018-09-08T19:23:44.980Z,5.00
2018-09-08T19:26:12.134Z,5.00
2018-09-08T19:28:39.494Z,3.63
2018-09-08T19:31:06.689Z,4.03
2018-09-08T19:33:33.935Z,4.23
2018-09-08T19:36:01.347Z,4.40
2018-09-08T19:38:28.567Z,4.40
2018-09-08T19:40:55.771Z,4.00
2018-09-08T19:43:23.076Z,4.73
2018-09-08T19:45:50.323Z,4.43
2018-09-08T19:48:19.386Z,4.27
2018-09-08T19:50:46.941Z,3.80
2018-09-08T19:53:19.771Z,4.70
2018-09-08T19:55:47.088Z,4.30
2018-09-08T19:58:19.896Z,4.70
2018-09-08T20:00:47.172Z,4.30
2018-09-08T20:03:14.497Z,4.27
2018-09-08T20:05:41.694Z,4.57
2018-09-08T20:08:08.927Z,3.83
2018-09-08T20:10:36.130Z,4.83
2018-09-08T20:13:03.365Z,4.57
2018-09-08T20:15:30.829Z,4.47
2018-09-08T20:17:58.049Z,4.80
2018-09-08T20:20:25.232Z,4.43
2018-09-08T20:22:52.616Z,4.70
2018-09-08T20:25:19.926Z,5.97
2018-09-08T20:27:47.288Z,5.27
2018-09-08T20:30:15.360Z,5.50
2018-09-08T20:32:42.550Z,5.40
2018-09-08T20:35:10.055Z,5.50
2018-09-08T20:37:37.273Z,5.20
2018-09-08T20:40:05.020Z,5.70
2018-09-08T20:42:32.258Z,5.10
2018-09-08T20:44:59.525Z,5.07
2018-09-08T20:47:26.850Z,5.40
2018-09-08T20:49:54.062Z,5.37
2018-09-08T20:52:21.337Z,4.70
2018-09-08T20:54:48.576Z,6.40
2018-09-08T20:57:15.875Z,6.93
2018-09-08T20:59:43.175Z,6.70
2018-09-08T21:02:10.406Z,5.80
2018-09-08T21:04:37.662Z,5.53
2018-09-08T21:07:06.133Z,5.47
2018-09-08T21:09:33.351Z,6.07
2018-09-08T21:12:00.661Z,5.80
2018-09-08T21:14:27.985Z,5.73
2018-09-08T21:16:55.183Z,5.90
2018-09-08T21:19:22.575Z,5.40
2018-09-08T21:21:49.796Z,5.40
2018-09-08T21:24:17.089Z,5.40
2018-09-08T21:26:44.460Z,5.17
2018-09-08T21:29:11.724Z,4.40
2018-09-08T21:31:38.914Z,4.77
2018-09-08T21:34:06.162Z,5.30
2018-09-08T21:36:33.433Z,5.60
2018-09-08T21:39:00.658Z,4.87
2018-09-08T21:41:28.025Z,4.53
2018-09-08T21:43:55.218Z,4.90
2018-09-08T21:46:22.383Z,5.83
2018-09-08T21:48:49.616Z,5.80
2018-09-08T21:51:16.810Z,5.33
2018-09-08T21:53:44.094Z,5.13
2018-09-08T21:56:11.357Z,4.90
2018-09-08T21:58:38.536Z,5.33
2018-09-08T22:01:11.477Z,4.70
2018-09-08T22:03:38.648Z,5.50
2018-09-08T22:06:06.145Z,5.70
2018-09-08T22:08:36.291Z,5.00
2018-09-08T22:11:03.445Z,4.07
2018-09-08T22:13:30.597Z,4.27
2018-09-08T22:15:57.948Z,5.50
2018-09-08T22:18:25.052Z,4.57
2018-09-08T22:20:52.214Z,4.50
2018-09-08T22:23:20.090Z,5.03
2018-09-08T22:25:47.305Z,4.77
2018-09-08T22:28:14.668Z,4.67
2018-09-08T22:30:41.943Z,4.77
2018-09-08T22:33:09.104Z,4.90
2018-09-08T22:35:36.273Z,4.43
2018-09-08T22:38:03.518Z,3.70
2018-09-08T22:40:30.712Z,4.53
2018-09-08T22:42:57.956Z,3.93
2018-09-08T22:45:25.762Z,4.03
2018-09-08T22:47:52.928Z,4.00
2018-09-08T22:50:20.077Z,4.57
2018-09-08T22:52:47.313Z,5.80
2018-09-08T22:55:14.486Z,4.97
2018-09-08T22:57:41.819Z,4.00
2018-09-08T23:00:09.248Z,4.30
2018-09-08T23:02:36.385Z,4.13
2018-09-08T23:05:03.888Z,4.47
2018-09-08T23:07:31.004Z,4.77
2018-09-08T23:09:58.128Z,4.87
2018-09-08T23:12:25.395Z,4.17
2018-09-08T23:14:52.577Z,3.67
2018-09-08T23:17:19.712Z,3.70
2018-09-08T23:19:47.012Z,4.90
2018-09-08T23:22:14.161Z,3.90
2018-09-08T23:24:41.420Z,3.97
2018-09-08T23:27:08.675Z,3.97
2018-09-08T23:29:35.833Z,4.10
2018-09-08T23:32:03.059Z,4.30
2018-09-08T23:34:30.141Z,4.50
2018-09-08T23:36:57.316Z,4.00
2018-09-08T23:39:24.700Z,4.77
2018-09-08T23:41:51.885Z,4.00
2018-09-08T23:44:18.977Z,4.30
2018-09-08T23:46:46.221Z,4.37
2018-09-08T23:49:13.396Z,5.27
2018-09-08T23:51:40.660Z,5.57
2018-09-08T23:54:07.864Z,6.60
2018-09-08T23:56:35.037Z,5.13
2018-09-08T23:59:02.341Z,5.30
